Terminal Aerodrome Forecast
Issued by NWS

Home | Current Version | Previous Version | Text Only | Print | Product List | Glossary On
Versions: 1 2 3 4 5 6 7 8 9 10 11 12 13 14 15 16 17 18 19 20 21 22 23 24 25
000
FTUS42 KRAH 311126
TAFRWI
TAF
KRWI 311126Z 3112/0112 07003KT P6SM SCT250
      TEMPO 3112/3114 1/4SM FG
     FM010600 00000KT 4SM HZ BR SCT250
      TEMPO 0109/0112 00000KT 1/4SM FG BKN250=

USA.gov is the U.S. government's official web portal to all federal, state and local government web resources and services.